sensor_id;sensor_type;location;lat;lon;timestamp;P1;durP1;ratioP1;P2;durP2;ratioP2
14599;SDS011;7386;45.586;12.854;2023-04-09T00:01:13;3.00;;;2.17;;
14599;SDS011;7386;45.586;12.854;2023-04-09T00:03:41;2.50;;;2.30;;
14599;SDS011;7386;45.586;12.854;2023-04-09T00:06:10;2.37;;;2.17;;
14599;SDS011;7386;45.586;12.854;2023-04-09T00:08:38;2.70;;;2.40;;
14599;SDS011;7386;45.586;12.854;2023-04-09T00:11:07;2.80;;;2.50;;
14599;SDS011;7386;45.586;12.854;2023-04-09T00:13:37;3.43;;;2.50;;
14599;SDS011;7386;45.586;12.854;2023-04-09T00:16:05;3.40;;;2.50;;
14599;SDS011;7386;45.586;12.854;2023-04-09T00:18:34;4.27;;;2.57;;
14599;SDS011;7386;45.586;12.854;2023-04-09T00:21:03;2.50;;;2.30;;
14599;SDS011;7386;45.586;12.854;2023-04-09T00:23:33;4.63;;;2.63;;
14599;SDS011;7386;45.586;12.854;2023-04-09T00:26:02;4.90;;;2.37;;
14599;SDS011;7386;45.586;12.854;2023-04-09T00:28:31;4.13;;;2.50;;
14599;SDS011;7386;45.586;12.854;2023-04-09T00:31:00;3.13;;;2.53;;
14599;SDS011;7386;45.586;12.854;2023-04-09T00:33:29;2.73;;;2.50;;
14599;SDS011;7386;45.586;12.854;2023-04-09T00:35:57;2.97;;;2.57;;
14599;SDS011;7386;45.586;12.854;2023-04-09T00:38:26;4.03;;;2.37;;
14599;SDS011;7386;45.586;12.854;2023-04-09T00:40:54;2.80;;;2.57;;
14599;SDS011;7386;45.586;12.854;2023-04-09T00:43:23;5.37;;;2.57;;
14599;SDS011;7386;45.586;12.854;2023-04-09T00:45:52;2.23;;;2.03;;
14599;SDS011;7386;45.586;12.854;2023-04-09T00:48:22;3.10;;;2.70;;
14599;SDS011;7386;45.586;12.854;2023-04-09T00:50:50;2.67;;;2.40;;
14599;SDS011;7386;45.586;12.854;2023-04-09T00:53:19;3.50;;;2.10;;
14599;SDS011;7386;45.586;12.854;2023-04-09T00:55:47;5.10;;;2.50;;
14599;SDS011;7386;45.586;12.854;2023-04-09T00:58:16;3.77;;;2.10;;
14599;SDS011;7386;45.586;12.854;2023-04-09T01:00:44;4.30;;;2.40;;
14599;SDS011;7386;45.586;12.854;2023-04-09T01:03:13;2.97;;;2.40;;
14599;SDS011;7386;45.586;12.854;2023-04-09T01:05:46;6.33;;;2.60;;
14599;SDS011;7386;45.586;12.854;2023-04-09T01:08:18;7.00;;;2.33;;
14599;SDS011;7386;45.586;12.854;2023-04-09T01:10:52;4.83;;;2.20;;
14599;SDS011;7386;45.586;12.854;2023-04-09T01:13:22;11.23;;;2.70;;
14599;SDS011;7386;45.586;12.854;2023-04-09T01:15:53;5.70;;;2.30;;
14599;SDS011;7386;45.586;12.854;2023-04-09T01:18:23;4.77;;;2.40;;
14599;SDS011;7386;45.586;12.854;2023-04-09T01:20:57;3.27;;;2.30;;
14599;SDS011;7386;45.586;12.854;2023-04-09T01:23:28;5.77;;;2.40;;
14599;SDS011;7386;45.586;12.854;2023-04-09T01:26:00;3.53;;;2.40;;
14599;SDS011;7386;45.586;12.854;2023-04-09T01:28:32;5.93;;;2.43;;
14599;SDS011;7386;45.586;12.854;2023-04-09T01:31:01;10.53;;;2.50;;
14599;SDS011;7386;45.586;12.854;2023-04-09T01:33:31;9.60;;;2.80;;
14599;SDS011;7386;45.586;12.854;2023-04-09T01:36:00;8.80;;;2.30;;
14599;SDS011;7386;45.586;12.854;2023-04-09T01:38:31;9.63;;;2.60;;
14599;SDS011;7386;45.586;12.854;2023-04-09T01:41:00;5.63;;;2.40;;
14599;SDS011;7386;45.586;12.854;2023-04-09T01:43:32;7.57;;;2.57;;
14599;SDS011;7386;45.586;12.854;2023-04-09T01:46:00;3.70;;;2.20;;
14599;SDS011;7386;45.586;12.854;2023-04-09T01:48:29;2.67;;;1.97;;
14599;SDS011;7386;45.586;12.854;2023-04-09T01:50:58;3.60;;;2.30;;
14599;SDS011;7386;45.586;12.854;2023-04-09T01:53:27;2.10;;;2.00;;
14599;SDS011;7386;45.586;12.854;2023-04-09T01:55:57;3.93;;;2.10;;
14599;SDS011;7386;45.586;12.854;2023-04-09T01:58:26;3.17;;;1.93;;
14599;SDS011;7386;45.586;12.854;2023-04-09T02:01:01;2.30;;;2.10;;
14599;SDS011;7386;45.586;12.854;2023-04-09T02:03:33;2.20;;;2.00;;
14599;SDS011;7386;45.586;12.854;2023-04-09T02:06:04;2.33;;;2.13;;
14599;SDS011;7386;45.586;12.854;2023-04-09T02:08:34;2.67;;;1.90;;
14599;SDS011;7386;45.586;12.854;2023-04-09T02:11:04;2.43;;;2.23;;
14599;SDS011;7386;45.586;12.854;2023-04-09T02:13:32;2.23;;;2.10;;
14599;SDS011;7386;45.586;12.854;2023-04-09T02:16:03;2.50;;;2.30;;
14599;SDS011;7386;45.586;12.854;2023-04-09T02:18:32;2.30;;;2.10;;
14599;SDS011;7386;45.586;12.854;2023-04-09T02:21:03;3.03;;;2.10;;
14599;SDS011;7386;45.586;12.854;2023-04-09T02:23:32;2.40;;;2.20;;
14599;SDS011;7386;45.586;12.854;2023-04-09T02:26:00;2.97;;;2.33;;
14599;SDS011;7386;45.586;12.854;2023-04-09T02:28:29;4.10;;;2.40;;
14599;SDS011;7386;45.586;12.854;2023-04-09T02:30:57;2.83;;;2.27;;
14599;SDS011;7386;45.586;12.854;2023-04-09T02:33:27;2.33;;;2.13;;
14599;SDS011;7386;45.586;12.854;2023-04-09T02:35:56;2.97;;;2.27;;
14599;SDS011;7386;45.586;12.854;2023-04-09T02:38:24;2.57;;;2.33;;
14599;SDS011;7386;45.586;12.854;2023-04-09T02:40:53;2.83;;;2.27;;
14599;SDS011;7386;45.586;12.854;2023-04-09T02:43:21;2.10;;;2.00;;
14599;SDS011;7386;45.586;12.854;2023-04-09T02:45:50;2.40;;;2.20;;
14599;SDS011;7386;45.586;12.854;2023-04-09T02:48:18;4.00;;;2.10;;
14599;SDS011;7386;45.586;12.854;2023-04-09T02:50:48;3.07;;;2.30;;
14599;SDS011;7386;45.586;12.854;2023-04-09T02:53:16;2.70;;;2.50;;
14599;SDS011;7386;45.586;12.854;2023-04-09T02:55:46;2.37;;;1.97;;
14599;SDS011;7386;45.586;12.854;2023-04-09T02:58:15;3.83;;;2.07;;
14599;SDS011;7386;45.586;12.854;2023-04-09T03:00:43;2.40;;;2.20;;
14599;SDS011;7386;45.586;12.854;2023-04-09T03:03:12;3.90;;;2.17;;
14599;SDS011;7386;45.586;12.854;2023-04-09T03:05:40;4.23;;;2.40;;
14599;SDS011;7386;45.586;12.854;2023-04-09T03:08:11;2.40;;;2.20;;
14599;SDS011;7386;45.586;12.854;2023-04-09T03:10:39;2.13;;;1.93;;
14599;SDS011;7386;45.586;12.854;2023-04-09T03:13:07;2.20;;;2.10;;
14599;SDS011;7386;45.586;12.854;2023-04-09T03:15:36;2.73;;;2.17;;
14599;SDS011;7386;45.586;12.854;2023-04-09T03:18:04;2.30;;;2.10;;
14599;SDS011;7386;45.586;12.854;2023-04-09T03:20:35;2.17;;;2.00;;
14599;SDS011;7386;45.586;12.854;2023-04-09T03:23:04;2.37;;;2.20;;
14599;SDS011;7386;45.586;12.854;2023-04-09T03:25:34;2.13;;;2.03;;
14599;SDS011;7386;45.586;12.854;2023-04-09T03:28:03;2.93;;;2.20;;
14599;SDS011;7386;45.586;12.854;2023-04-09T03:30:31;4.17;;;2.23;;
14599;SDS011;7386;45.586;12.854;2023-04-09T03:33:00;2.40;;;2.20;;
14599;SDS011;7386;45.586;12.854;2023-04-09T03:35:28;3.20;;;2.20;;
14599;SDS011;7386;45.586;12.854;2023-04-09T03:37:56;3.43;;;2.33;;
14599;SDS011;7386;45.586;12.854;2023-04-09T03:40:25;2.30;;;2.10;;
14599;SDS011;7386;45.586;12.854;2023-04-09T03:42:56;2.67;;;2.23;;
14599;SDS011;7386;45.586;12.854;2023-04-09T03:45:24;2.93;;;2.73;;
14599;SDS011;7386;45.586;12.854;2023-04-09T03:47:53;3.80;;;2.30;;
14599;SDS011;7386;45.586;12.854;2023-04-09T03:50:23;3.90;;;2.47;;
14599;SDS011;7386;45.586;12.854;2023-04-09T03:52:51;2.63;;;2.30;;
14599;SDS011;7386;45.586;12.854;2023-04-09T03:55:20;2.83;;;2.30;;
14599;SDS011;7386;45.586;12.854;2023-04-09T03:57:48;4.00;;;2.50;;
14599;SDS011;7386;45.586;12.854;2023-04-09T04:00:18;3.70;;;2.17;;
14599;SDS011;7386;45.586;12.854;2023-04-09T04:02:47;2.40;;;2.20;;
14599;SDS011;7386;45.586;12.854;2023-04-09T04:05:16;2.73;;;2.50;;
14599;SDS011;7386;45.586;12.854;2023-04-09T04:07:45;3.03;;;2.30;;
14599;SDS011;7386;45.586;12.854;2023-04-09T04:10:13;3.43;;;2.50;;
14599;SDS011;7386;45.586;12.854;2023-04-09T04:12:41;3.20;;;2.50;;
14599;SDS011;7386;45.586;12.854;2023-04-09T04:15:10;2.90;;;2.20;;
14599;SDS011;7386;45.586;12.854;2023-04-09T04:17:40;3.23;;;2.63;;
14599;SDS011;7386;45.586;12.854;2023-04-09T04:20:09;2.50;;;2.30;;
14599;SDS011;7386;45.586;12.854;2023-04-09T04:22:38;3.73;;;2.40;;
14599;SDS011;7386;45.586;12.854;2023-04-09T04:25:06;2.77;;;2.33;;
14599;SDS011;7386;45.586;12.854;2023-04-09T04:27:35;2.63;;;2.17;;
14599;SDS011;7386;45.586;12.854;2023-04-09T04:30:03;4.13;;;2.20;;
14599;SDS011;7386;45.586;12.854;2023-04-09T04:32:32;2.33;;;2.13;;
14599;SDS011;7386;45.586;12.854;2023-04-09T04:35:02;2.63;;;2.33;;
14599;SDS011;7386;45.586;12.854;2023-04-09T04:37:30;3.77;;;2.50;;
14599;SDS011;7386;45.586;12.854;2023-04-09T04:39:59;3.30;;;2.37;;
14599;SDS011;7386;45.586;12.854;2023-04-09T04:42:29;3.50;;;2.47;;
14599;SDS011;7386;45.586;12.854;2023-04-09T04:44:58;2.53;;;2.33;;
14599;SDS011;7386;45.586;12.854;2023-04-09T04:47:26;2.57;;;2.20;;
14599;SDS011;7386;45.586;12.854;2023-04-09T04:49:54;3.60;;;2.83;;
14599;SDS011;7386;45.586;12.854;2023-04-09T04:52:25;3.27;;;2.80;;
14599;SDS011;7386;45.586;12.854;2023-04-09T04:54:53;2.43;;;2.23;;
14599;SDS011;7386;45.586;12.854;2023-04-09T04:57:21;4.37;;;2.60;;
14599;SDS011;7386;45.586;12.854;2023-04-09T04:59:50;2.73;;;2.30;;
14599;SDS011;7386;45.586;12.854;2023-04-09T05:02:18;2.80;;;2.50;;
14599;SDS011;7386;45.586;12.854;2023-04-09T05:04:47;3.00;;;2.70;;
14599;SDS011;7386;45.586;12.854;2023-04-09T05:07:15;5.53;;;2.70;;
14599;SDS011;7386;45.586;12.854;2023-04-09T05:09:45;3.13;;;2.77;;
14599;SDS011;7386;45.586;12.854;2023-04-09T05:12:14;3.20;;;2.90;;
14599;SDS011;7386;45.586;12.854;2023-04-09T05:14:43;3.10;;;2.83;;
14599;SDS011;7386;45.586;12.854;2023-04-09T05:17:12;3.37;;;3.07;;
14599;SDS011;7386;45.586;12.854;2023-04-09T05:19:40;3.43;;;3.13;;
14599;SDS011;7386;45.586;12.854;2023-04-09T05:22:09;3.33;;;3.03;;
14599;SDS011;7386;45.586;12.854;2023-04-09T05:24:38;3.37;;;3.07;;
14599;SDS011;7386;45.586;12.854;2023-04-09T05:27:08;3.27;;;2.97;;
14599;SDS011;7386;45.586;12.854;2023-04-09T05:29:36;3.63;;;3.27;;
14599;SDS011;7386;45.586;12.854;2023-04-09T05:32:05;3.40;;;3.03;;
14599;SDS011;7386;45.586;12.854;2023-04-09T05:34:34;3.97;;;3.30;;
14599;SDS011;7386;45.586;12.854;2023-04-09T05:37:03;3.70;;;3.37;;
14599;SDS011;7386;45.586;12.854;2023-04-09T05:39:31;3.70;;;3.30;;
14599;SDS011;7386;45.586;12.854;2023-04-09T05:42:00;3.83;;;3.40;;
14599;SDS011;7386;45.586;12.854;2023-04-09T05:44:30;4.23;;;3.50;;
14599;SDS011;7386;45.586;12.854;2023-04-09T05:46:58;4.03;;;3.37;;
14599;SDS011;7386;45.586;12.854;2023-04-09T05:49:27;3.77;;;3.37;;
14599;SDS011;7386;45.586;12.854;2023-04-09T05:51:55;3.77;;;3.40;;
14599;SDS011;7386;45.586;12.854;2023-04-09T05:54:24;3.83;;;3.33;;
14599;SDS011;7386;45.586;12.854;2023-04-09T05:56:52;3.90;;;3.47;;
14599;SDS011;7386;45.586;12.854;2023-04-09T05:59:21;3.70;;;3.30;;
14599;SDS011;7386;45.586;12.854;2023-04-09T06:01:50;3.80;;;3.40;;
14599;SDS011;7386;45.586;12.854;2023-04-09T06:04:19;4.23;;;3.13;;
14599;SDS011;7386;45.586;12.854;2023-04-09T06:06:48;3.50;;;3.20;;
14599;SDS011;7386;45.586;12.854;2023-04-09T06:09:17;4.33;;;3.50;;
14599;SDS011;7386;45.586;12.854;2023-04-09T06:11:45;4.03;;;3.50;;
14599;SDS011;7386;45.586;12.854;2023-04-09T06:14:13;4.30;;;3.60;;
14599;SDS011;7386;45.586;12.854;2023-04-09T06:16:43;4.47;;;3.83;;
14599;SDS011;7386;45.586;12.854;2023-04-09T06:19:13;4.67;;;3.60;;
14599;SDS011;7386;45.586;12.854;2023-04-09T06:21:43;4.10;;;3.40;;
14599;SDS011;7386;45.586;12.854;2023-04-09T06:24:12;4.40;;;3.67;;
14599;SDS011;7386;45.586;12.854;2023-04-09T06:26:40;4.57;;;3.73;;
14599;SDS011;7386;45.586;12.854;2023-04-09T06:29:09;3.97;;;3.57;;
14599;SDS011;7386;45.586;12.854;2023-04-09T06:31:37;4.97;;;4.10;;
14599;SDS011;7386;45.586;12.854;2023-04-09T06:34:06;4.03;;;3.63;;
14599;SDS011;7386;45.586;12.854;2023-04-09T06:36:36;5.57;;;3.80;;
14599;SDS011;7386;45.586;12.854;2023-04-09T06:39:05;4.27;;;3.70;;
14599;SDS011;7386;45.586;12.854;2023-04-09T06:41:34;4.97;;;3.87;;
14599;SDS011;7386;45.586;12.854;2023-04-09T06:44:03;6.70;;;4.60;;
14599;SDS011;7386;45.586;12.854;2023-04-09T06:46:32;7.00;;;4.93;;
14599;SDS011;7386;45.586;12.854;2023-04-09T06:49:00;9.03;;;5.90;;
14599;SDS011;7386;45.586;12.854;2023-04-09T06:51:29;8.33;;;5.70;;
14599;SDS011;7386;45.586;12.854;2023-04-09T06:53:59;8.63;;;5.60;;
14599;SDS011;7386;45.586;12.854;2023-04-09T06:56:27;8.47;;;5.23;;
14599;SDS011;7386;45.586;12.854;2023-04-09T06:58:56;8.97;;;5.90;;
14599;SDS011;7386;45.586;12.854;2023-04-09T07:01:25;8.57;;;5.70;;
14599;SDS011;7386;45.586;12.854;2023-04-09T07:03:53;7.80;;;5.50;;
14599;SDS011;7386;45.586;12.854;2023-04-09T07:06:22;8.97;;;5.70;;
14599;SDS011;7386;45.586;12.854;2023-04-09T07:08:51;8.33;;;5.47;;
14599;SDS011;7386;45.586;12.854;2023-04-09T07:11:21;6.87;;;4.63;;
14599;SDS011;7386;45.586;12.854;2023-04-09T07:13:50;7.83;;;5.30;;
14599;SDS011;7386;45.586;12.854;2023-04-09T07:16:19;6.37;;;4.63;;
14599;SDS011;7386;45.586;12.854;2023-04-09T07:18:47;7.87;;;4.90;;
14599;SDS011;7386;45.586;12.854;2023-04-09T07:21:15;7.10;;;5.10;;
14599;SDS011;7386;45.586;12.854;2023-04-09T07:23:44;8.17;;;4.50;;
14599;SDS011;7386;45.586;12.854;2023-04-09T07:26:13;7.27;;;4.80;;
14599;SDS011;7386;45.586;12.854;2023-04-09T07:28:43;5.33;;;3.97;;
14599;SDS011;7386;45.586;12.854;2023-04-09T07:31:11;7.43;;;4.17;;
14599;SDS011;7386;45.586;12.854;2023-04-09T07:33:39;6.87;;;4.27;;
14599;SDS011;7386;45.586;12.854;2023-04-09T07:36:08;6.77;;;4.20;;
14599;SDS011;7386;45.586;12.854;2023-04-09T07:38:37;6.77;;;4.77;;
14599;SDS011;7386;45.586;12.854;2023-04-09T07:41:05;7.37;;;4.63;;
14599;SDS011;7386;45.586;12.854;2023-04-09T07:43:34;6.77;;;4.47;;
14599;SDS011;7386;45.586;12.854;2023-04-09T07:46:04;6.40;;;4.60;;
14599;SDS011;7386;45.586;12.854;2023-04-09T07:48:32;5.90;;;4.20;;
14599;SDS011;7386;45.586;12.854;2023-04-09T07:51:01;7.00;;;4.57;;
14599;SDS011;7386;45.586;12.854;2023-04-09T07:53:29;6.77;;;4.10;;
14599;SDS011;7386;45.586;12.854;2023-04-09T07:55:58;5.83;;;4.07;;
14599;SDS011;7386;45.586;12.854;2023-04-09T07:58:26;7.70;;;4.10;;
14599;SDS011;7386;45.586;12.854;2023-04-09T08:00:55;6.40;;;3.80;;
14599;SDS011;7386;45.586;12.854;2023-04-09T08:03:24;5.37;;;3.40;;
14599;SDS011;7386;45.586;12.854;2023-04-09T08:05:53;4.97;;;3.33;;
14599;SDS011;7386;45.586;12.854;2023-04-09T08:08:22;6.60;;;3.20;;
14599;SDS011;7386;45.586;12.854;2023-04-09T08:10:50;4.90;;;3.60;;
14599;SDS011;7386;45.586;12.854;2023-04-09T08:13:19;5.00;;;3.20;;
14599;SDS011;7386;45.586;12.854;2023-04-09T08:15:47;3.90;;;3.30;;
14599;SDS011;7386;45.586;12.854;2023-04-09T08:18:16;5.63;;;3.50;;
14599;SDS011;7386;45.586;12.854;2023-04-09T08:20:45;6.73;;;3.53;;
14599;SDS011;7386;45.586;12.854;2023-04-09T08:23:14;4.57;;;3.40;;
14599;SDS011;7386;45.586;12.854;2023-04-09T08:25:42;4.23;;;3.33;;
14599;SDS011;7386;45.586;12.854;2023-04-09T08:28:11;5.07;;;3.60;;
14599;SDS011;7386;45.586;12.854;2023-04-09T08:30:39;4.57;;;3.20;;
14599;SDS011;7386;45.586;12.854;2023-04-09T08:33:07;5.13;;;3.53;;
14599;SDS011;7386;45.586;12.854;2023-04-09T08:35:36;5.90;;;3.63;;
14599;SDS011;7386;45.586;12.854;2023-04-09T08:38:07;5.60;;;3.60;;
14599;SDS011;7386;45.586;12.854;2023-04-09T08:40:36;5.27;;;3.30;;
14599;SDS011;7386;45.586;12.854;2023-04-09T08:43:05;3.37;;;3.00;;
14599;SDS011;7386;45.586;12.854;2023-04-09T08:45:34;4.53;;;3.00;;
14599;SDS011;7386;45.586;12.854;2023-04-09T08:48:03;4.87;;;3.50;;
14599;SDS011;7386;45.586;12.854;2023-04-09T08:50:32;3.87;;;3.20;;
14599;SDS011;7386;45.586;12.854;2023-04-09T08:53:01;6.47;;;3.40;;
14599;SDS011;7386;45.586;12.854;2023-04-09T08:55:31;4.83;;;3.23;;
14599;SDS011;7386;45.586;12.854;2023-04-09T08:58:02;6.03;;;3.60;;
14599;SDS011;7386;45.586;12.854;2023-04-09T09:00:32;6.10;;;3.50;;
14599;SDS011;7386;45.586;12.854;2023-04-09T09:03:01;6.17;;;3.30;;
14599;SDS011;7386;45.586;12.854;2023-04-09T09:05:37;5.90;;;3.20;;
14599;SDS011;7386;45.586;12.854;2023-04-09T09:08:06;3.70;;;2.97;;
14599;SDS011;7386;45.586;12.854;2023-04-09T09:10:40;5.13;;;3.17;;
14599;SDS011;7386;45.586;12.854;2023-04-09T09:13:16;4.40;;;3.17;;
14599;SDS011;7386;45.586;12.854;2023-04-09T09:15:44;4.57;;;3.00;;
14599;SDS011;7386;45.586;12.854;2023-04-09T09:18:15;3.77;;;3.07;;
14599;SDS011;7386;45.586;12.854;2023-04-09T09:20:45;4.37;;;3.30;;
14599;SDS011;7386;45.586;12.854;2023-04-09T09:23:13;4.83;;;3.30;;
14599;SDS011;7386;45.586;12.854;2023-04-09T09:25:43;3.87;;;3.00;;
14599;SDS011;7386;45.586;12.854;2023-04-09T09:28:12;5.97;;;3.40;;
14599;SDS011;7386;45.586;12.854;2023-04-09T09:30:40;4.87;;;3.13;;
14599;SDS011;7386;45.586;12.854;2023-04-09T09:33:09;4.03;;;3.10;;
14599;SDS011;7386;45.586;12.854;2023-04-09T09:38:24;3.83;;;2.93;;
14599;SDS011;7386;45.586;12.854;2023-04-09T09:40:54;4.60;;;2.93;;
14599;SDS011;7386;45.586;12.854;2023-04-09T09:43:23;3.47;;;2.77;;
14599;SDS011;7386;45.586;12.854;2023-04-09T09:45:51;3.70;;;3.00;;
14599;SDS011;7386;45.586;12.854;2023-04-09T09:48:20;4.30;;;3.10;;
14599;SDS011;7386;45.586;12.854;2023-04-09T09:50:50;3.37;;;2.87;;
14599;SDS011;7386;45.586;12.854;2023-04-09T09:53:19;2.67;;;2.47;;
14599;SDS011;7386;45.586;12.854;2023-04-09T09:55:49;5.30;;;3.10;;
14599;SDS011;7386;45.586;12.854;2023-04-09T09:58:22;3.07;;;2.60;;
14599;SDS011;7386;45.586;12.854;2023-04-09T10:00:52;4.53;;;2.70;;
14599;SDS011;7386;45.586;12.854;2023-04-09T10:03:23;3.47;;;2.90;;
14599;SDS011;7386;45.586;12.854;2023-04-09T10:05:53;3.93;;;2.77;;
14599;SDS011;7386;45.586;12.854;2023-04-09T10:08:21;4.00;;;2.90;;
14599;SDS011;7386;45.586;12.854;2023-04-09T10:10:50;2.83;;;2.50;;
14599;SDS011;7386;45.586;12.854;2023-04-09T10:16:04;4.23;;;3.00;;
14599;SDS011;7386;45.586;12.854;2023-04-09T10:18:34;3.70;;;3.00;;
14599;SDS011;7386;45.586;12.854;2023-04-09T10:21:04;3.70;;;2.87;;
14599;SDS011;7386;45.586;12.854;2023-04-09T10:23:37;4.27;;;2.87;;
14599;SDS011;7386;45.586;12.854;2023-04-09T10:26:06;4.00;;;2.83;;
14599;SDS011;7386;45.586;12.854;2023-04-09T10:28:35;4.37;;;2.73;;
14599;SDS011;7386;45.586;12.854;2023-04-09T10:31:05;3.90;;;2.83;;
14599;SDS011;7386;45.586;12.854;2023-04-09T10:33:35;3.60;;;2.70;;
14599;SDS011;7386;45.586;12.854;2023-04-09T10:36:04;4.77;;;2.83;;
14599;SDS011;7386;45.586;12.854;2023-04-09T10:38:36;3.53;;;2.73;;
14599;SDS011;7386;45.586;12.854;2023-04-09T10:41:06;5.13;;;2.70;;
14599;SDS011;7386;45.586;12.854;2023-04-09T10:43:35;2.73;;;2.47;;
14599;SDS011;7386;45.586;12.854;2023-04-09T10:46:06;3.17;;;2.70;;
14599;SDS011;7386;45.586;12.854;2023-04-09T10:48:35;3.40;;;2.80;;
14599;SDS011;7386;45.586;12.854;2023-04-09T10:51:03;2.90;;;2.60;;
14599;SDS011;7386;45.586;12.854;2023-04-09T10:53:32;4.10;;;2.90;;
14599;SDS011;7386;45.586;12.854;2023-04-09T10:56:01;3.00;;;2.70;;
14599;SDS011;7386;45.586;12.854;2023-04-09T10:58:41;3.50;;;2.90;;
14599;SDS011;7386;45.586;12.854;2023-04-09T11:01:11;3.67;;;2.47;;
14599;SDS011;7386;45.586;12.854;2023-04-09T11:04:04;3.50;;;2.53;;
14599;SDS011;7386;45.586;12.854;2023-04-09T11:06:37;3.53;;;2.60;;
14599;SDS011;7386;45.586;12.854;2023-04-09T11:09:08;2.83;;;2.50;;
14599;SDS011;7386;45.586;12.854;2023-04-09T11:11:37;3.13;;;2.70;;
14599;SDS011;7386;45.586;12.854;2023-04-09T11:14:06;4.37;;;2.60;;
14599;SDS011;7386;45.586;12.854;2023-04-09T11:16:35;3.47;;;2.63;;
14599;SDS011;7386;45.586;12.854;2023-04-09T11:19:04;3.37;;;2.60;;
14599;SDS011;7386;45.586;12.854;2023-04-09T11:21:33;3.70;;;2.50;;
14599;SDS011;7386;45.586;12.854;2023-04-09T11:24:02;3.00;;;2.70;;
14599;SDS011;7386;45.586;12.854;2023-04-09T11:26:33;2.73;;;2.50;;
14599;SDS011;7386;45.586;12.854;2023-04-09T11:29:03;2.90;;;2.53;;
14599;SDS011;7386;45.586;12.854;2023-04-09T11:31:33;3.00;;;2.63;;
14599;SDS011;7386;45.586;12.854;2023-04-09T11:34:03;2.83;;;2.53;;
14599;SDS011;7386;45.586;12.854;2023-04-09T11:36:33;2.80;;;2.50;;
14599;SDS011;7386;45.586;12.854;2023-04-09T11:39:01;2.80;;;2.40;;
14599;SDS011;7386;45.586;12.854;2023-04-09T11:41:33;2.90;;;2.50;;
14599;SDS011;7386;45.586;12.854;2023-04-09T11:44:02;2.77;;;2.50;;
14599;SDS011;7386;45.586;12.854;2023-04-09T11:46:30;2.60;;;2.40;;
14599;SDS011;7386;45.586;12.854;2023-04-09T11:48:59;4.30;;;2.80;;
14599;SDS011;7386;45.586;12.854;2023-04-09T11:51:29;3.17;;;2.50;;
14599;SDS011;7386;45.586;12.854;2023-04-09T11:54:00;2.50;;;2.30;;
14599;SDS011;7386;45.586;12.854;2023-04-09T11:56:28;2.90;;;2.40;;
14599;SDS011;7386;45.586;12.854;2023-04-09T11:58:57;3.87;;;3.03;;
14599;SDS011;7386;45.586;12.854;2023-04-09T12:01:29;3.33;;;2.70;;
14599;SDS011;7386;45.586;12.854;2023-04-09T12:03:58;3.17;;;2.77;;
14599;SDS011;7386;45.586;12.854;2023-04-09T12:06:27;4.93;;;2.80;;
14599;SDS011;7386;45.586;12.854;2023-04-09T12:08:58;4.00;;;2.60;;
14599;SDS011;7386;45.586;12.854;2023-04-09T12:11:27;2.77;;;2.47;;
14599;SDS011;7386;45.586;12.854;2023-04-09T12:14:00;2.50;;;2.30;;
14599;SDS011;7386;45.586;12.854;2023-04-09T12:16:29;3.00;;;2.70;;
14599;SDS011;7386;45.586;12.854;2023-04-09T12:18:59;2.80;;;2.50;;
14599;SDS011;7386;45.586;12.854;2023-04-09T12:24:13;2.90;;;2.60;;
14599;SDS011;7386;45.586;12.854;2023-04-09T12:26:42;2.77;;;2.53;;
14599;SDS011;7386;45.586;12.854;2023-04-09T12:29:10;3.23;;;2.70;;
14599;SDS011;7386;45.586;12.854;2023-04-09T12:31:39;3.40;;;2.80;;
14599;SDS011;7386;45.586;12.854;2023-04-09T12:34:07;2.87;;;2.57;;
14599;SDS011;7386;45.586;12.854;2023-04-09T12:36:36;3.30;;;2.90;;
14599;SDS011;7386;45.586;12.854;2023-04-09T12:39:04;3.00;;;2.70;;
14599;SDS011;7386;45.586;12.854;2023-04-09T12:41:34;3.77;;;3.00;;
14599;SDS011;7386;45.586;12.854;2023-04-09T12:44:03;3.07;;;2.73;;
14599;SDS011;7386;45.586;12.854;2023-04-09T12:46:32;3.00;;;2.70;;
14599;SDS011;7386;45.586;12.854;2023-04-09T12:49:01;2.97;;;2.50;;
14599;SDS011;7386;45.586;12.854;2023-04-09T12:51:29;3.57;;;2.63;;
14599;SDS011;7386;45.586;12.854;2023-04-09T12:53:58;3.57;;;2.90;;
14599;SDS011;7386;45.586;12.854;2023-04-09T12:56:29;3.07;;;2.77;;
14599;SDS011;7386;45.586;12.854;2023-04-09T12:58:59;2.77;;;2.50;;
14599;SDS011;7386;45.586;12.854;2023-04-09T13:01:27;4.20;;;3.20;;
14599;SDS011;7386;45.586;12.854;2023-04-09T13:03:56;3.37;;;2.83;;
14599;SDS011;7386;45.586;12.854;2023-04-09T13:06:24;3.20;;;2.80;;
14599;SDS011;7386;45.586;12.854;2023-04-09T13:08:53;3.07;;;2.70;;
14599;SDS011;7386;45.586;12.854;2023-04-09T13:11:21;3.47;;;2.73;;
14599;SDS011;7386;45.586;12.854;2023-04-09T13:13:50;4.47;;;3.10;;
14599;SDS011;7386;45.586;12.854;2023-04-09T13:16:20;4.23;;;3.27;;
14599;SDS011;7386;45.586;12.854;2023-04-09T13:18:49;3.53;;;3.07;;
14599;SDS011;7386;45.586;12.854;2023-04-09T13:21:18;5.87;;;3.07;;
14599;SDS011;7386;45.586;12.854;2023-04-09T13:23:46;3.57;;;2.90;;
14599;SDS011;7386;45.586;12.854;2023-04-09T13:26:15;3.40;;;3.07;;
14599;SDS011;7386;45.586;12.854;2023-04-09T13:28:43;4.30;;;3.20;;
14599;SDS011;7386;45.586;12.854;2023-04-09T13:31:12;4.03;;;3.20;;
14599;SDS011;7386;45.586;12.854;2023-04-09T13:33:41;3.70;;;3.03;;
14599;SDS011;7386;45.586;12.854;2023-04-09T13:36:10;4.13;;;3.17;;
14599;SDS011;7386;45.586;12.854;2023-04-09T13:38:38;3.77;;;3.00;;
14599;SDS011;7386;45.586;12.854;2023-04-09T13:41:07;4.43;;;3.47;;
14599;SDS011;7386;45.586;12.854;2023-04-09T13:43:37;6.50;;;3.70;;
14599;SDS011;7386;45.586;12.854;2023-04-09T13:46:05;4.63;;;2.87;;
14599;SDS011;7386;45.586;12.854;2023-04-09T13:48:34;3.53;;;3.03;;
14599;SDS011;7386;45.586;12.854;2023-04-09T13:51:04;4.10;;;3.10;;
14599;SDS011;7386;45.586;12.854;2023-04-09T13:53:32;6.03;;;3.03;;
14599;SDS011;7386;45.586;12.854;2023-04-09T13:56:01;5.43;;;3.27;;
14599;SDS011;7386;45.586;12.854;2023-04-09T13:58:29;5.73;;;3.33;;
14599;SDS011;7386;45.586;12.854;2023-04-09T14:00:58;5.70;;;3.20;;
14599;SDS011;7386;45.586;12.854;2023-04-09T14:03:28;4.90;;;3.17;;
14599;SDS011;7386;45.586;12.854;2023-04-09T14:05:56;4.43;;;3.40;;
14599;SDS011;7386;45.586;12.854;2023-04-09T14:08:28;3.73;;;2.97;;
14599;SDS011;7386;45.586;12.854;2023-04-09T14:10:56;4.97;;;3.13;;
14599;SDS011;7386;45.586;12.854;2023-04-09T14:13:25;5.83;;;3.37;;
14599;SDS011;7386;45.586;12.854;2023-04-09T14:15:53;6.63;;;3.50;;
14599;SDS011;7386;45.586;12.854;2023-04-09T14:18:25;4.60;;;3.50;;
14599;SDS011;7386;45.586;12.854;2023-04-09T14:20:53;3.87;;;3.17;;
14599;SDS011;7386;45.586;12.854;2023-04-09T14:23:22;8.07;;;3.17;;
14599;SDS011;7386;45.586;12.854;2023-04-09T14:25:51;7.10;;;3.47;;
14599;SDS011;7386;45.586;12.854;2023-04-09T14:28:20;5.40;;;3.30;;
14599;SDS011;7386;45.586;12.854;2023-04-09T14:30:48;4.67;;;3.07;;
14599;SDS011;7386;45.586;12.854;2023-04-09T14:33:17;6.27;;;3.83;;
14599;SDS011;7386;45.586;12.854;2023-04-09T14:35:45;6.30;;;3.70;;
14599;SDS011;7386;45.586;12.854;2023-04-09T14:38:14;9.27;;;4.03;;
14599;SDS011;7386;45.586;12.854;2023-04-09T14:40:43;5.13;;;3.27;;
14599;SDS011;7386;45.586;12.854;2023-04-09T14:43:13;5.80;;;3.37;;
14599;SDS011;7386;45.586;12.854;2023-04-09T14:45:41;3.77;;;3.03;;
14599;SDS011;7386;45.586;12.854;2023-04-09T14:48:10;3.83;;;2.90;;
14599;SDS011;7386;45.586;12.854;2023-04-09T14:50:38;3.70;;;2.90;;
14599;SDS011;7386;45.586;12.854;2023-04-09T14:53:08;4.13;;;3.10;;
14599;SDS011;7386;45.586;12.854;2023-04-09T14:55:37;5.13;;;3.10;;
14599;SDS011;7386;45.586;12.854;2023-04-09T14:58:06;4.90;;;3.10;;
14599;SDS011;7386;45.586;12.854;2023-04-09T15:00:35;4.87;;;3.23;;
14599;SDS011;7386;45.586;12.854;2023-04-09T15:03:04;5.03;;;3.10;;
14599;SDS011;7386;45.586;12.854;2023-04-09T15:05:33;3.57;;;2.97;;
14599;SDS011;7386;45.586;12.854;2023-04-09T15:08:01;3.70;;;3.00;;